sensor_id;sensor_type;location;lat;lon;timestamp;temperature;humidity
36444;DHT22;24692;45.642;13.806;2023-11-22T00:00:37;11.80;99.90
36444;DHT22;24692;45.642;13.806;2023-11-22T00:03:03;11.80;99.90
36444;DHT22;24692;45.642;13.806;2023-11-22T00:05:29;11.80;99.90
36444;DHT22;24692;45.642;13.806;2023-11-22T00:07:54;11.80;99.90
36444;DHT22;24692;45.642;13.806;2023-11-22T00:10:20;11.80;99.90
36444;DHT22;24692;45.642;13.806;2023-11-22T00:12:46;11.80;99.90
36444;DHT22;24692;45.642;13.806;2023-11-22T00:15:11;11.80;99.90
36444;DHT22;24692;45.642;13.806;2023-11-22T00:17:37;11.70;99.90
36444;DHT22;24692;45.642;13.806;2023-11-22T00:20:04;11.70;99.90
36444;DHT22;24692;45.642;13.806;2023-11-22T00:22:32;11.60;99.90
36444;DHT22;24692;45.642;13.806;2023-11-22T00:24:58;11.70;99.90
36444;DHT22;24692;45.642;13.806;2023-11-22T00:27:24;11.70;99.90
36444;DHT22;24692;45.642;13.806;2023-11-22T00:29:50;11.60;99.90
36444;DHT22;24692;45.642;13.806;2023-11-22T00:32:17;11.60;99.90
36444;DHT22;24692;45.642;13.806;2023-11-22T00:34:43;11.60;99.90
36444;DHT22;24692;45.642;13.806;2023-11-22T00:37:09;11.60;99.90
36444;DHT22;24692;45.642;13.806;2023-11-22T00:39:34;11.50;99.90
36444;DHT22;24692;45.642;13.806;2023-11-22T00:42:00;11.50;99.90
36444;DHT22;24692;45.642;13.806;2023-11-22T00:44:26;11.50;99.90
36444;DHT22;24692;45.642;13.806;2023-11-22T00:46:51;11.40;99.90
36444;DHT22;24692;45.642;13.806;2023-11-22T00:49:17;11.40;99.90
36444;DHT22;24692;45.642;13.806;2023-11-22T00:51:42;11.40;99.90
36444;DHT22;24692;45.642;13.806;2023-11-22T00:54:08;11.40;99.90
36444;DHT22;24692;45.642;13.806;2023-11-22T00:56:34;11.40;99.90
36444;DHT22;24692;45.642;13.806;2023-11-22T00:59:01;11.40;99.90
36444;DHT22;24692;45.642;13.806;2023-11-22T01:01:29;11.50;99.90
36444;DHT22;24692;45.642;13.806;2023-11-22T01:03:55;11.40;99.90
36444;DHT22;24692;45.642;13.806;2023-11-22T01:06:20;11.40;99.90
36444;DHT22;24692;45.642;13.806;2023-11-22T01:08:48;11.40;99.90
36444;DHT22;24692;45.642;13.806;2023-11-22T01:11:14;11.30;99.90
36444;DHT22;24692;45.642;13.806;2023-11-22T01:13:40;11.40;99.90
36444;DHT22;24692;45.642;13.806;2023-11-22T01:16:08;11.40;99.90
36444;DHT22;24692;45.642;13.806;2023-11-22T01:18:34;11.40;99.90
36444;DHT22;24692;45.642;13.806;2023-11-22T01:21:00;11.40;99.90
36444;DHT22;24692;45.642;13.806;2023-11-22T01:23:26;11.40;99.90
36444;DHT22;24692;45.642;13.806;2023-11-22T01:25:53;11.30;99.90
36444;DHT22;24692;45.642;13.806;2023-11-22T01:28:19;11.30;99.90
36444;DHT22;24692;45.642;13.806;2023-11-22T01:30:45;11.30;99.90
36444;DHT22;24692;45.642;13.806;2023-11-22T01:33:15;11.20;99.90
36444;DHT22;24692;45.642;13.806;2023-11-22T01:35:40;11.20;99.90
36444;DHT22;24692;45.642;13.806;2023-11-22T01:38:07;11.20;99.90
36444;DHT22;24692;45.642;13.806;2023-11-22T01:40:33;11.20;99.90
36444;DHT22;24692;45.642;13.806;2023-11-22T01:42:59;11.20;99.90
36444;DHT22;24692;45.642;13.806;2023-11-22T01:45:25;11.20;99.90
36444;DHT22;24692;45.642;13.806;2023-11-22T01:47:52;11.10;99.90
36444;DHT22;24692;45.642;13.806;2023-11-22T01:50:19;11.10;99.90
36444;DHT22;24692;45.642;13.806;2023-11-22T01:52:45;11.10;99.90
36444;DHT22;24692;45.642;13.806;2023-11-22T01:55:12;11.10;99.90
36444;DHT22;24692;45.642;13.806;2023-11-22T01:57:39;11.10;99.90
36444;DHT22;24692;45.642;13.806;2023-11-22T02:00:05;11.10;99.90
36444;DHT22;24692;45.642;13.806;2023-11-22T02:02:39;11.20;99.90
36444;DHT22;24692;45.642;13.806;2023-11-22T02:05:05;11.20;99.90
36444;DHT22;24692;45.642;13.806;2023-11-22T02:07:31;11.20;99.90
36444;DHT22;24692;45.642;13.806;2023-11-22T02:09:58;11.10;99.90
36444;DHT22;24692;45.642;13.806;2023-11-22T02:12:23;11.20;99.90
36444;DHT22;24692;45.642;13.806;2023-11-22T02:14:49;11.10;99.90
36444;DHT22;24692;45.642;13.806;2023-11-22T02:17:15;11.10;99.90
36444;DHT22;24692;45.642;13.806;2023-11-22T02:19:43;11.10;99.90
36444;DHT22;24692;45.642;13.806;2023-11-22T02:22:08;11.00;99.90
36444;DHT22;24692;45.642;13.806;2023-11-22T02:24:34;11.00;99.90
36444;DHT22;24692;45.642;13.806;2023-11-22T02:27:00;11.00;99.90
36444;DHT22;24692;45.642;13.806;2023-11-22T02:29:26;11.00;99.90
36444;DHT22;24692;45.642;13.806;2023-11-22T02:31:52;11.10;99.90
36444;DHT22;24692;45.642;13.806;2023-11-22T02:34:18;11.00;99.90
36444;DHT22;24692;45.642;13.806;2023-11-22T02:36:45;11.00;99.90
36444;DHT22;24692;45.642;13.806;2023-11-22T02:39:10;11.00;99.90
36444;DHT22;24692;45.642;13.806;2023-11-22T02:41:36;11.00;99.90
36444;DHT22;24692;45.642;13.806;2023-11-22T02:44:02;11.00;99.90
36444;DHT22;24692;45.642;13.806;2023-11-22T02:46:27;11.00;99.90
36444;DHT22;24692;45.642;13.806;2023-11-22T02:48:54;11.00;99.90
36444;DHT22;24692;45.642;13.806;2023-11-22T02:51:20;11.00;99.90
36444;DHT22;24692;45.642;13.806;2023-11-22T02:53:48;11.00;99.90
36444;DHT22;24692;45.642;13.806;2023-11-22T02:56:15;11.00;99.90
36444;DHT22;24692;45.642;13.806;2023-11-22T02:58:41;11.00;99.90
36444;DHT22;24692;45.642;13.806;2023-11-22T03:01:07;11.00;99.90
36444;DHT22;24692;45.642;13.806;2023-11-22T03:03:33;11.10;99.90
36444;DHT22;24692;45.642;13.806;2023-11-22T03:05:59;11.10;99.90
36444;DHT22;24692;45.642;13.806;2023-11-22T03:08:25;11.00;99.90
36444;DHT22;24692;45.642;13.806;2023-11-22T03:10:51;11.10;99.90
36444;DHT22;24692;45.642;13.806;2023-11-22T03:13:17;11.00;99.90
36444;DHT22;24692;45.642;13.806;2023-11-22T03:15:44;11.00;99.90
36444;DHT22;24692;45.642;13.806;2023-11-22T03:18:09;11.10;99.90
36444;DHT22;24692;45.642;13.806;2023-11-22T03:20:36;11.20;99.90
36444;DHT22;24692;45.642;13.806;2023-11-22T03:23:03;11.20;99.90
36444;DHT22;24692;45.642;13.806;2023-11-22T03:25:29;11.20;99.90
36444;DHT22;24692;45.642;13.806;2023-11-22T03:27:55;11.20;99.90
36444;DHT22;24692;45.642;13.806;2023-11-22T03:30:21;11.10;99.90
36444;DHT22;24692;45.642;13.806;2023-11-22T03:32:47;11.10;99.90
36444;DHT22;24692;45.642;13.806;2023-11-22T03:35:12;11.10;99.90
36444;DHT22;24692;45.642;13.806;2023-11-22T03:37:38;11.10;99.90
36444;DHT22;24692;45.642;13.806;2023-11-22T03:40:04;11.10;99.90
36444;DHT22;24692;45.642;13.806;2023-11-22T03:42:30;11.00;99.90
36444;DHT22;24692;45.642;13.806;2023-11-22T03:44:55;11.00;99.90
36444;DHT22;24692;45.642;13.806;2023-11-22T03:47:22;11.00;99.90
36444;DHT22;24692;45.642;13.806;2023-11-22T03:49:47;11.00;99.90
36444;DHT22;24692;45.642;13.806;2023-11-22T03:52:13;10.90;99.90
36444;DHT22;24692;45.642;13.806;2023-11-22T03:54:40;10.90;99.90
36444;DHT22;24692;45.642;13.806;2023-11-22T03:57:05;10.90;99.90
36444;DHT22;24692;45.642;13.806;2023-11-22T03:59:31;10.90;99.90
36444;DHT22;24692;45.642;13.806;2023-11-22T04:01:57;10.90;99.90
36444;DHT22;24692;45.642;13.806;2023-11-22T04:04:23;11.00;99.90
36444;DHT22;24692;45.642;13.806;2023-11-22T04:06:49;11.00;99.90
36444;DHT22;24692;45.642;13.806;2023-11-22T04:09:15;11.00;99.90
36444;DHT22;24692;45.642;13.806;2023-11-22T04:11:46;11.00;99.90
36444;DHT22;24692;45.642;13.806;2023-11-22T04:14:12;11.00;99.90
36444;DHT22;24692;45.642;13.806;2023-11-22T04:16:38;11.00;99.90
36444;DHT22;24692;45.642;13.806;2023-11-22T04:19:04;11.00;99.90
36444;DHT22;24692;45.642;13.806;2023-11-22T04:21:30;10.90;99.90
36444;DHT22;24692;45.642;13.806;2023-11-22T04:23:55;10.80;99.90
36444;DHT22;24692;45.642;13.806;2023-11-22T04:26:21;10.80;99.90
36444;DHT22;24692;45.642;13.806;2023-11-22T04:28:47;10.80;99.90
36444;DHT22;24692;45.642;13.806;2023-11-22T04:31:13;10.70;99.90
36444;DHT22;24692;45.642;13.806;2023-11-22T04:33:38;10.80;99.90
36444;DHT22;24692;45.642;13.806;2023-11-22T04:36:04;10.70;99.90
36444;DHT22;24692;45.642;13.806;2023-11-22T04:38:30;10.80;99.90
36444;DHT22;24692;45.642;13.806;2023-11-22T04:40:56;10.70;99.90
36444;DHT22;24692;45.642;13.806;2023-11-22T04:43:22;10.70;99.90
36444;DHT22;24692;45.642;13.806;2023-11-22T04:45:50;10.70;99.90
36444;DHT22;24692;45.642;13.806;2023-11-22T04:48:17;10.70;99.90
36444;DHT22;24692;45.642;13.806;2023-11-22T04:50:43;10.70;99.90
36444;DHT22;24692;45.642;13.806;2023-11-22T04:53:12;10.70;99.90
36444;DHT22;24692;45.642;13.806;2023-11-22T04:55:39;10.80;99.90
36444;DHT22;24692;45.642;13.806;2023-11-22T04:58:07;10.80;99.90
36444;DHT22;24692;45.642;13.806;2023-11-22T05:00:33;10.80;99.90
36444;DHT22;24692;45.642;13.806;2023-11-22T05:02:59;10.80;99.90
36444;DHT22;24692;45.642;13.806;2023-11-22T05:05:24;10.80;99.90
36444;DHT22;24692;45.642;13.806;2023-11-22T05:07:50;10.80;99.90
36444;DHT22;24692;45.642;13.806;2023-11-22T05:10:16;10.90;99.90
36444;DHT22;24692;45.642;13.806;2023-11-22T05:12:43;10.90;99.90
36444;DHT22;24692;45.642;13.806;2023-11-22T05:15:10;10.90;99.90
36444;DHT22;24692;45.642;13.806;2023-11-22T05:17:36;10.90;99.90
36444;DHT22;24692;45.642;13.806;2023-11-22T05:20:01;10.90;99.90
36444;DHT22;24692;45.642;13.806;2023-11-22T05:22:27;10.90;99.90
36444;DHT22;24692;45.642;13.806;2023-11-22T05:24:53;11.00;99.90
36444;DHT22;24692;45.642;13.806;2023-11-22T05:27:19;11.00;99.90
36444;DHT22;24692;45.642;13.806;2023-11-22T05:29:44;11.00;99.90
36444;DHT22;24692;45.642;13.806;2023-11-22T05:32:10;11.00;99.90
36444;DHT22;24692;45.642;13.806;2023-11-22T05:34:36;11.10;99.90
36444;DHT22;24692;45.642;13.806;2023-11-22T05:37:03;11.10;99.90
36444;DHT22;24692;45.642;13.806;2023-11-22T05:39:31;11.10;99.90
36444;DHT22;24692;45.642;13.806;2023-11-22T05:41:56;11.10;99.90
36444;DHT22;24692;45.642;13.806;2023-11-22T05:44:22;11.10;99.90
36444;DHT22;24692;45.642;13.806;2023-11-22T05:46:48;11.10;99.90
36444;DHT22;24692;45.642;13.806;2023-11-22T05:49:13;11.20;99.90
36444;DHT22;24692;45.642;13.806;2023-11-22T05:51:39;11.20;99.90
36444;DHT22;24692;45.642;13.806;2023-11-22T05:54:06;11.20;99.90
36444;DHT22;24692;45.642;13.806;2023-11-22T05:56:32;11.30;99.90
36444;DHT22;24692;45.642;13.806;2023-11-22T05:58:58;11.30;99.90
36444;DHT22;24692;45.642;13.806;2023-11-22T06:01:25;11.30;99.90
36444;DHT22;24692;45.642;13.806;2023-11-22T06:03:52;11.40;99.90
36444;DHT22;24692;45.642;13.806;2023-11-22T06:06:18;11.50;99.90
36444;DHT22;24692;45.642;13.806;2023-11-22T06:08:47;11.50;99.90
36444;DHT22;24692;45.642;13.806;2023-11-22T06:11:12;11.40;99.90
36444;DHT22;24692;45.642;13.806;2023-11-22T06:13:40;11.50;99.90
36444;DHT22;24692;45.642;13.806;2023-11-22T06:16:06;11.50;99.90
36444;DHT22;24692;45.642;13.806;2023-11-22T06:18:32;11.40;99.90
36444;DHT22;24692;45.642;13.806;2023-11-22T06:20:58;11.50;99.90
36444;DHT22;24692;45.642;13.806;2023-11-22T06:23:24;11.40;99.90
36444;DHT22;24692;45.642;13.806;2023-11-22T06:25:50;11.40;99.90
36444;DHT22;24692;45.642;13.806;2023-11-22T06:28:16;11.40;99.90
36444;DHT22;24692;45.642;13.806;2023-11-22T06:30:41;11.40;99.90
36444;DHT22;24692;45.642;13.806;2023-11-22T06:33:07;11.40;99.90
36444;DHT22;24692;45.642;13.806;2023-11-22T06:35:33;11.50;99.90
36444;DHT22;24692;45.642;13.806;2023-11-22T06:37:59;11.50;99.90
36444;DHT22;24692;45.642;13.806;2023-11-22T06:40:24;11.50;99.90
36444;DHT22;24692;45.642;13.806;2023-11-22T06:42:50;11.50;99.90
36444;DHT22;24692;45.642;13.806;2023-11-22T06:45:17;11.60;99.90
36444;DHT22;24692;45.642;13.806;2023-11-22T06:47:42;11.60;99.90
36444;DHT22;24692;45.642;13.806;2023-11-22T06:50:09;11.70;99.90
36444;DHT22;24692;45.642;13.806;2023-11-22T06:52:36;11.70;99.90
36444;DHT22;24692;45.642;13.806;2023-11-22T06:55:04;11.70;99.90
36444;DHT22;24692;45.642;13.806;2023-11-22T06:57:30;11.70;99.90
36444;DHT22;24692;45.642;13.806;2023-11-22T06:59:56;11.80;99.90
36444;DHT22;24692;45.642;13.806;2023-11-22T07:02:22;11.90;99.90
36444;DHT22;24692;45.642;13.806;2023-11-22T07:04:48;11.80;99.90
36444;DHT22;24692;45.642;13.806;2023-11-22T07:07:14;11.70;99.90
36444;DHT22;24692;45.642;13.806;2023-11-22T07:09:44;11.70;99.90
36444;DHT22;24692;45.642;13.806;2023-11-22T07:12:12;11.70;99.90
36444;DHT22;24692;45.642;13.806;2023-11-22T07:14:38;11.70;99.90
36444;DHT22;24692;45.642;13.806;2023-11-22T07:17:04;11.70;99.90
36444;DHT22;24692;45.642;13.806;2023-11-22T07:19:32;11.70;99.90
36444;DHT22;24692;45.642;13.806;2023-11-22T07:22:04;11.70;99.90
36444;DHT22;24692;45.642;13.806;2023-11-22T07:24:30;11.70;99.90
36444;DHT22;24692;45.642;13.806;2023-11-22T07:26:59;11.70;99.90
36444;DHT22;24692;45.642;13.806;2023-11-22T07:29:26;11.80;99.90
36444;DHT22;24692;45.642;13.806;2023-11-22T07:31:54;11.80;99.90
36444;DHT22;24692;45.642;13.806;2023-11-22T07:34:21;11.80;99.90
36444;DHT22;24692;45.642;13.806;2023-11-22T07:36:47;11.80;99.90
36444;DHT22;24692;45.642;13.806;2023-11-22T07:39:13;11.80;99.90
36444;DHT22;24692;45.642;13.806;2023-11-22T07:41:39;11.80;99.90
36444;DHT22;24692;45.642;13.806;2023-11-22T07:44:04;11.80;99.90
36444;DHT22;24692;45.642;13.806;2023-11-22T07:46:30;11.80;99.90
36444;DHT22;24692;45.642;13.806;2023-11-22T07:48:56;11.80;99.90
36444;DHT22;24692;45.642;13.806;2023-11-22T07:51:23;11.70;99.90
36444;DHT22;24692;45.642;13.806;2023-11-22T07:53:49;11.70;99.90
36444;DHT22;24692;45.642;13.806;2023-11-22T07:56:15;11.80;99.90
36444;DHT22;24692;45.642;13.806;2023-11-22T07:58:42;11.90;99.90
36444;DHT22;24692;45.642;13.806;2023-11-22T08:01:07;11.90;99.90
36444;DHT22;24692;45.642;13.806;2023-11-22T08:03:39;11.90;99.90
36444;DHT22;24692;45.642;13.806;2023-11-22T08:06:11;12.00;99.90
36444;DHT22;24692;45.642;13.806;2023-11-22T08:08:37;12.10;99.90
36444;DHT22;24692;45.642;13.806;2023-11-22T08:11:06;12.10;99.90
36444;DHT22;24692;45.642;13.806;2023-11-22T08:13:43;12.10;99.90
36444;DHT22;24692;45.642;13.806;2023-11-22T08:16:10;12.20;99.90
36444;DHT22;24692;45.642;13.806;2023-11-22T08:18:38;12.20;99.90
36444;DHT22;24692;45.642;13.806;2023-11-22T08:21:05;12.10;99.90
36444;DHT22;24692;45.642;13.806;2023-11-22T08:23:30;12.20;99.90
36444;DHT22;24692;45.642;13.806;2023-11-22T08:25:59;12.10;99.90
36444;DHT22;24692;45.642;13.806;2023-11-22T08:28:25;12.20;99.90
36444;DHT22;24692;45.642;13.806;2023-11-22T08:30:51;12.20;99.90
36444;DHT22;24692;45.642;13.806;2023-11-22T08:33:17;12.20;99.90
36444;DHT22;24692;45.642;13.806;2023-11-22T08:35:43;12.30;99.90
36444;DHT22;24692;45.642;13.806;2023-11-22T08:38:09;12.30;99.90
36444;DHT22;24692;45.642;13.806;2023-11-22T08:40:35;12.30;99.90
36444;DHT22;24692;45.642;13.806;2023-11-22T08:43:05;12.50;99.90
36444;DHT22;24692;45.642;13.806;2023-11-22T08:45:31;12.60;99.90
36444;DHT22;24692;45.642;13.806;2023-11-22T08:47:57;12.50;99.90
36444;DHT22;24692;45.642;13.806;2023-11-22T08:50:24;12.50;99.90
36444;DHT22;24692;45.642;13.806;2023-11-22T08:52:50;12.60;99.90
36444;DHT22;24692;45.642;13.806;2023-11-22T08:55:19;12.50;99.90
36444;DHT22;24692;45.642;13.806;2023-11-22T08:57:48;12.60;99.90
36444;DHT22;24692;45.642;13.806;2023-11-22T09:00:17;12.70;99.90
36444;DHT22;24692;45.642;13.806;2023-11-22T09:02:48;12.70;99.90
36444;DHT22;24692;45.642;13.806;2023-11-22T09:05:14;12.80;99.90
36444;DHT22;24692;45.642;13.806;2023-11-22T09:07:42;13.00;99.90
36444;DHT22;24692;45.642;13.806;2023-11-22T09:10:10;13.30;99.90
36444;DHT22;24692;45.642;13.806;2023-11-22T09:12:40;13.70;99.90
36444;DHT22;24692;45.642;13.806;2023-11-22T09:15:11;13.70;99.90
36444;DHT22;24692;45.642;13.806;2023-11-22T09:17:37;13.90;99.90
36444;DHT22;24692;45.642;13.806;2023-11-22T09:20:15;14.80;99.90
36444;DHT22;24692;45.642;13.806;2023-11-22T09:22:49;15.40;99.90
36444;DHT22;24692;45.642;13.806;2023-11-22T09:25:15;15.00;99.90
36444;DHT22;24692;45.642;13.806;2023-11-22T09:27:43;15.40;99.90
36444;DHT22;24692;45.642;13.806;2023-11-22T09:30:13;16.20;99.90
36444;DHT22;24692;45.642;13.806;2023-11-22T09:32:45;16.20;99.90
36444;DHT22;24692;45.642;13.806;2023-11-22T09:35:12;15.90;99.90
36444;DHT22;24692;45.642;13.806;2023-11-22T09:37:40;15.40;99.90
36444;DHT22;24692;45.642;13.806;2023-11-22T09:40:08;14.80;99.90
36444;DHT22;24692;45.642;13.806;2023-11-22T09:42:35;14.70;99.90
36444;DHT22;24692;45.642;13.806;2023-11-22T09:45:01;14.40;99.90
36444;DHT22;24692;45.642;13.806;2023-11-22T09:47:29;14.50;99.90
36444;DHT22;24692;45.642;13.806;2023-11-22T09:49:57;14.40;99.90
36444;DHT22;24692;45.642;13.806;2023-11-22T09:52:28;14.60;99.90
36444;DHT22;24692;45.642;13.806;2023-11-22T09:54:55;15.00;99.90
36444;DHT22;24692;45.642;13.806;2023-11-22T09:57:23;15.00;99.90
36444;DHT22;24692;45.642;13.806;2023-11-22T09:59:52;14.90;99.90
36444;DHT22;24692;45.642;13.806;2023-11-22T10:02:20;14.80;99.90
36444;DHT22;24692;45.642;13.806;2023-11-22T10:04:53;15.10;99.90
36444;DHT22;24692;45.642;13.806;2023-11-22T10:07:22;15.10;99.90
36444;DHT22;24692;45.642;13.806;2023-11-22T10:09:48;14.60;99.90
36444;DHT22;24692;45.642;13.806;2023-11-22T10:12:19;14.40;99.90
36444;DHT22;24692;45.642;13.806;2023-11-22T10:14:51;14.20;99.90
36444;DHT22;24692;45.642;13.806;2023-11-22T10:17:18;14.40;99.90
36444;DHT22;24692;45.642;13.806;2023-11-22T10:19:45;14.50;99.90
36444;DHT22;24692;45.642;13.806;2023-11-22T10:22:12;14.50;99.90
36444;DHT22;24692;45.642;13.806;2023-11-22T10:24:43;14.30;99.90
36444;DHT22;24692;45.642;13.806;2023-11-22T10:27:10;14.40;99.90
36444;DHT22;24692;45.642;13.806;2023-11-22T10:29:38;14.50;99.90
36444;DHT22;24692;45.642;13.806;2023-11-22T10:32:05;14.60;99.90
36444;DHT22;24692;45.642;13.806;2023-11-22T10:34:33;14.90;99.90
36444;DHT22;24692;45.642;13.806;2023-11-22T10:36:59;14.80;99.90
36444;DHT22;24692;45.642;13.806;2023-11-22T10:39:27;14.80;99.90
36444;DHT22;24692;45.642;13.806;2023-11-22T10:41:52;14.50;99.90
36444;DHT22;24692;45.642;13.806;2023-11-22T10:44:20;14.60;99.90
36444;DHT22;24692;45.642;13.806;2023-11-22T10:46:47;15.00;99.90
36444;DHT22;24692;45.642;13.806;2023-11-22T10:49:16;14.80;99.90
36444;DHT22;24692;45.642;13.806;2023-11-22T10:51:46;14.80;99.90
36444;DHT22;24692;45.642;13.806;2023-11-22T10:54:20;14.60;99.90
36444;DHT22;24692;45.642;13.806;2023-11-22T10:56:53;14.70;99.90
36444;DHT22;24692;45.642;13.806;2023-11-22T10:59:22;15.00;99.90
36444;DHT22;24692;45.642;13.806;2023-11-22T11:01:52;14.60;99.90
36444;DHT22;24692;45.642;13.806;2023-11-22T11:04:33;14.50;99.90
36444;DHT22;24692;45.642;13.806;2023-11-22T11:07:02;14.50;99.90
36444;DHT22;24692;45.642;13.806;2023-11-22T11:09:28;14.60;99.90
36444;DHT22;24692;45.642;13.806;2023-11-22T11:11:58;15.10;99.90
36444;DHT22;24692;45.642;13.806;2023-11-22T11:14:25;16.10;99.90
36444;DHT22;24692;45.642;13.806;2023-11-22T11:16:53;16.30;99.90
36444;DHT22;24692;45.642;13.806;2023-11-22T11:19:21;16.80;99.90
36444;DHT22;24692;45.642;13.806;2023-11-22T11:21:48;17.00;99.90
36444;DHT22;24692;45.642;13.806;2023-11-22T11:24:14;16.70;99.90
36444;DHT22;24692;45.642;13.806;2023-11-22T11:26:40;16.90;99.90
36444;DHT22;24692;45.642;13.806;2023-11-22T11:29:06;17.50;99.90
36444;DHT22;24692;45.642;13.806;2023-11-22T11:31:34;17.80;99.90
36444;DHT22;24692;45.642;13.806;2023-11-22T11:34:07;17.70;99.90
36444;DHT22;24692;45.642;13.806;2023-11-22T11:36:33;17.90;99.90
36444;DHT22;24692;45.642;13.806;2023-11-22T11:39:05;18.00;99.90
36444;DHT22;24692;45.642;13.806;2023-11-22T11:41:35;18.40;99.90
36444;DHT22;24692;45.642;13.806;2023-11-22T11:44:07;19.30;99.90
36444;DHT22;24692;45.642;13.806;2023-11-22T11:46:36;19.90;99.90
36444;DHT22;24692;45.642;13.806;2023-11-22T11:49:06;20.30;99.90
36444;DHT22;24692;45.642;13.806;2023-11-22T11:51:33;19.80;99.90
36444;DHT22;24692;45.642;13.806;2023-11-22T11:53:59;19.70;99.90
36444;DHT22;24692;45.642;13.806;2023-11-22T11:56:25;19.90;99.90
36444;DHT22;24692;45.642;13.806;2023-11-22T11:58:53;20.40;99.90
36444;DHT22;24692;45.642;13.806;2023-11-22T12:01:19;20.40;99.90
36444;DHT22;24692;45.642;13.806;2023-11-22T12:03:48;19.80;99.90
36444;DHT22;24692;45.642;13.806;2023-11-22T12:06:18;19.40;99.90
36444;DHT22;24692;45.642;13.806;2023-11-22T12:08:45;20.30;99.90
36444;DHT22;24692;45.642;13.806;2023-11-22T12:11:12;20.50;99.90
36444;DHT22;24692;45.642;13.806;2023-11-22T12:13:38;20.30;99.90
36444;DHT22;24692;45.642;13.806;2023-11-22T12:16:07;19.60;99.90
36444;DHT22;24692;45.642;13.806;2023-11-22T12:18:43;19.40;99.90
36444;DHT22;24692;45.642;13.806;2023-11-22T12:21:08;20.00;99.90
36444;DHT22;24692;45.642;13.806;2023-11-22T12:23:39;20.40;99.90
36444;DHT22;24692;45.642;13.806;2023-11-22T12:26:09;20.50;99.90
36444;DHT22;24692;45.642;13.806;2023-11-22T12:28:34;19.90;99.90
36444;DHT22;24692;45.642;13.806;2023-11-22T12:31:07;19.50;99.90
36444;DHT22;24692;45.642;13.806;2023-11-22T12:33:35;20.20;99.90
36444;DHT22;24692;45.642;13.806;2023-11-22T12:36:04;20.40;99.90
36444;DHT22;24692;45.642;13.806;2023-11-22T12:38:30;20.00;99.90
36444;DHT22;24692;45.642;13.806;2023-11-22T12:40:57;20.00;99.90
36444;DHT22;24692;45.642;13.806;2023-11-22T12:43:23;19.40;99.90
36444;DHT22;24692;45.642;13.806;2023-11-22T12:46:02;20.10;99.90
36444;DHT22;24692;45.642;13.806;2023-11-22T12:48:28;20.50;99.90
36444;DHT22;24692;45.642;13.806;2023-11-22T12:50:58;20.60;99.90
36444;DHT22;24692;45.642;13.806;2023-11-22T12:53:24;20.80;99.90
36444;DHT22;24692;45.642;13.806;2023-11-22T12:55:53;20.60;99.90
36444;DHT22;24692;45.642;13.806;2023-11-22T12:58:20;19.90;99.90
36444;DHT22;24692;45.642;13.806;2023-11-22T13:00:48;19.30;99.90
36444;DHT22;24692;45.642;13.806;2023-11-22T13:03:14;18.80;99.90
36444;DHT22;24692;45.642;13.806;2023-11-22T13:05:44;19.00;99.90
36444;DHT22;24692;45.642;13.806;2023-11-22T13:08:11;19.00;99.90
36444;DHT22;24692;45.642;13.806;2023-11-22T13:10:40;19.20;99.90
36444;DHT22;24692;45.642;13.806;2023-11-22T13:13:08;18.90;99.90
36444;DHT22;24692;45.642;13.806;2023-11-22T13:15:37;18.80;99.90
36444;DHT22;24692;45.642;13.806;2023-11-22T13:18:03;18.70;99.90
36444;DHT22;24692;45.642;13.806;2023-11-22T13:20:32;19.00;99.90
36444;DHT22;24692;45.642;13.806;2023-11-22T13:22:57;18.90;99.90
36444;DHT22;24692;45.642;13.806;2023-11-22T13:25:25;19.20;99.90
36444;DHT22;24692;45.642;13.806;2023-11-22T13:27:52;19.10;99.90
36444;DHT22;24692;45.642;13.806;2023-11-22T13:30:19;19.90;99.90
36444;DHT22;24692;45.642;13.806;2023-11-22T13:32:51;19.00;99.90
36444;DHT22;24692;45.642;13.806;2023-11-22T13:35:17;19.00;99.90
36444;DHT22;24692;45.642;13.806;2023-11-22T13:37:47;19.70;99.90
36444;DHT22;24692;45.642;13.806;2023-11-22T13:40:18;20.00;99.90
36444;DHT22;24692;45.642;13.806;2023-11-22T13:42:48;20.60;99.90
36444;DHT22;24692;45.642;13.806;2023-11-22T13:45:16;20.20;99.90
36444;DHT22;24692;45.642;13.806;2023-11-22T13:47:47;19.90;99.90
36444;DHT22;24692;45.642;13.806;2023-11-22T13:50:14;20.10;99.90
36444;DHT22;24692;45.642;13.806;2023-11-22T13:52:44;19.90;99.90
36444;DHT22;24692;45.642;13.806;2023-11-22T13:55:11;19.50;99.90
36444;DHT22;24692;45.642;13.806;2023-11-22T13:57:38;19.70;99.90
36444;DHT22;24692;45.642;13.806;2023-11-22T14:00:05;20.00;99.90
36444;DHT22;24692;45.642;13.806;2023-11-22T14:02:39;20.20;99.90
36444;DHT22;24692;45.642;13.806;2023-11-22T14:05:06;19.90;99.90
36444;DHT22;24692;45.642;13.806;2023-11-22T14:07:36;20.20;99.90
36444;DHT22;24692;45.642;13.806;2023-11-22T14:10:03;19.70;99.90
36444;DHT22;24692;45.642;13.806;2023-11-22T14:12:30;19.90;99.90
36444;DHT22;24692;45.642;13.806;2023-11-22T14:14:59;19.80;99.90
36444;DHT22;24692;45.642;13.806;2023-11-22T14:17:25;19.90;99.90
36444;DHT22;24692;45.642;13.806;2023-11-22T14:19:54;20.00;99.90
36444;DHT22;24692;45.642;13.806;2023-11-22T14:22:21;19.10;99.90
36444;DHT22;24692;45.642;13.806;2023-11-22T14:24:48;18.60;99.90
36444;DHT22;24692;45.642;13.806;2023-11-22T14:27:14;18.40;99.90
36444;DHT22;24692;45.642;13.806;2023-11-22T14:29:40;18.10;99.90
36444;DHT22;24692;45.642;13.806;2023-11-22T14:32:07;18.30;99.90
36444;DHT22;24692;45.642;13.806;2023-11-22T14:34:33;18.30;99.90
36444;DHT22;24692;45.642;13.806;2023-11-22T14:36:59;18.20;99.90
36444;DHT22;24692;45.642;13.806;2023-11-22T14:39:25;17.90;99.90
36444;DHT22;24692;45.642;13.806;2023-11-22T14:41:52;17.80;99.90
36444;DHT22;24692;45.642;13.806;2023-11-22T14:44:19;17.40;99.90
36444;DHT22;24692;45.642;13.806;2023-11-22T14:46:46;17.40;99.90
36444;DHT22;24692;45.642;13.806;2023-11-22T14:49:12;17.30;99.90
36444;DHT22;24692;45.642;13.806;2023-11-22T14:51:39;17.20;99.90
36444;DHT22;24692;45.642;13.806;2023-11-22T14:54:05;17.40;99.90
36444;DHT22;24692;45.642;13.806;2023-11-22T14:56:32;17.00;99.90
36444;DHT22;24692;45.642;13.806;2023-11-22T14:58:59;16.30;99.90
36444;DHT22;24692;45.642;13.806;2023-11-22T15:01:25;16.10;99.90
36444;DHT22;24692;45.642;13.806;2023-11-22T15:03:52;15.80;99.90
36444;DHT22;24692;45.642;13.806;2023-11-22T15:06:20;16.10;99.90
36444;DHT22;24692;45.642;13.806;2023-11-22T15:08:46;16.00;99.90
36444;DHT22;24692;45.642;13.806;2023-11-22T15:11:13;15.70;99.90
36444;DHT22;24692;45.642;13.806;2023-11-22T15:13:41;15.80;99.90